Time;durP1;ratioP1;P1;durP2;ratioP2;P2;SDS_P1;SDS_P2;PMS_P1;PMS_P2;Temp;Humidity;BMP_temperature;BMP_pressure;BME280_temperature;BME280_humidity;BME280_pressure;Samples;Min_cycle;Max_cycle;Signal;HPM_P1;HPM_P2
2022/05/20 00:01:18;;;;;;;5.43;4.28;;;;;;;;;;5048605;28;20053;-59
2022/05/20 00:07:46;;;;;;;5.10;3.47;;;;;;;;;;4988598;28;20149;-59
2022/05/20 00:13:10;;;;;;;5.20;4.60;;;;;;;;;;5048397;28;20509;-59
2022/05/20 00:15:39;;;;;;;10.93;4.13;;;;;;;;;;5029825;28;20037;-59
2022/05/20 00:24:28;;;;;;;5.75;3.88;;;;;;;;;;4971259;29;20099;-59
2022/05/20 00:29:58;;;;;;;7.07;4.03;;;;;;;;;;4999672;28;20049;-59
2022/05/20 00:32:42;;;;;;;7.43;4.20;;;;;;;;;;5030154;28;20034;-59
2022/05/20 00:35:15;;;;;;;7.50;4.32;;;;;;;;;;5030423;28;20041;-59
2022/05/20 00:41:07;;;;;;;4.47;3.80;;;;;;;;;;5003555;28;20038;-59
2022/05/20 00:46:44;;;;;;;5.15;3.90;;;;;;;;;;5024657;28;20355;-59
2022/05/20 00:49:35;;;;;;;;;;;;;;;;;;;;;
2022/05/20 00:58:17;;;;;;;6.10;3.95;;;;;;;;;;5046991;28;20033;-59
2022/05/20 01:02:12;;;;;;;;;;;;;;;;;;;;;
2022/05/20 01:04:13;;;;;;;5.05;4.03;;;;;;;;;;5038007;28;20116;-59
2022/05/20 01:06:45;;;;;;;4.88;3.75;;;;;;;;;;5078390;28;20033;-59
2022/05/20 01:09:42;;;;;;;8.35;4.40;;;;;;;;;;5025969;28;20065;-59
2022/05/20 01:12:35;;;;;;;5.57;4.45;;;;;;;;;;5026377;28;20049;-59
2022/05/20 01:15:43;;;;;;;6.05;3.78;;;;;;;;;;5007468;28;20117;-59
2022/05/20 01:18:53;;;;;;;;;;;;;;;;;;;;;
2022/05/20 01:21:50;;;;;;;6.43;4.40;;;;;;;;;;5007969;28;20098;-59
2022/05/20 01:24:17;;;;;;;5.22;4.40;;;;;;;;;;5007589;28;20381;-59
2022/05/20 01:30:22;;;;;;;5.82;4.18;;;;;;;;;;4974889;28;20031;-59
2022/05/20 01:32:59;;;;;;;8.23;4.03;;;;;;;;;;4988209;28;20323;-59
2022/05/20 01:35:46;;;;;;;4.45;3.83;;;;;;;;;;4962916;28;20083;-59
2022/05/20 01:38:37;;;;;;;5.15;4.47;;;;;;;;;;4987905;28;20073;-59
2022/05/20 01:41:14;;;;;;;;;;;;;;;;;;5004823;28;20046;-59
2022/05/20 01:47:16;;;;;;;5.32;4.15;;;;;;;;;;4996396;28;20034;-59
2022/05/20 01:50:04;;;;;;;8.88;5.05;;;;;;;;;;5026699;28;20064;-59
2022/05/20 01:52:53;;;;;;;7.43;4.55;;;;;;;;;;5027359;28;20124;-59
2022/05/20 01:55:43;;;;;;;5.93;4.38;;;;;;;;;;4949015;29;20107;-59
2022/05/20 01:58:43;;;;;;;8.32;4.28;;;;;;;;;;5025587;28;20037;-59
2022/05/20 02:01:31;;;;;;;5.35;3.65;;;;;;;;;;5027664;28;20395;-59
2022/05/20 02:04:07;;;;;;;4.97;4.47;;;;;;;;;;5029082;28;20038;-59
2022/05/20 02:06:58;;;;;;;5.63;4.43;;;;;;;;;;5028225;28;20026;-59
2022/05/20 02:10:00;;;;;;;10.32;6.07;;;;;;;;;;5028158;28;20034;-59
2022/05/20 02:12:46;;;;;;;5.32;4.40;;;;;;;;;;5006871;28;20084;-59
2022/05/20 02:15:46;;;;;;;6.57;3.88;;;;;;;;;;4983169;28;20022;-59
2022/05/20 02:21:54;;;;;;;;;;;;;;;;;;;;;
2022/05/20 02:24:53;;;;;;;5.50;4.85;;;;;;;;;;4981565;28;20065;-59
2022/05/20 02:27:23;;;;;;;9.02;5.00;;;;;;;;;;4987429;28;20059;-59
2022/05/20 02:30:27;;;;;;;6.40;5.10;;;;;;;;;;4987050;28;20513;-59
2022/05/20 02:36:25;;;;;;;6.40;4.45;;;;;;;;;;4929519;29;20036;-59
2022/05/20 02:39:15;;;;;;;6.38;4.53;;;;;;;;;;4967502;29;20049;-59
2022/05/20 02:41:49;;;;;;;4.85;4.28;;;;;;;;;;4958602;28;20505;-59
2022/05/20 02:44:25;;;;;;;6.28;4.75;;;;;;;;;;5005598;28;20030;-59
2022/05/20 02:47:07;;;;;;;5.72;4.82;;;;;;;;;;5006230;28;20034;-59
2022/05/20 02:49:54;;;;;;;6.18;4.90;;;;;;;;;;4981200;28;20528;-59
2022/05/20 02:52:36;;;;;;;6.50;4.65;;;;;;;;;;5005576;28;20030;-59
2022/05/20 02:55:41;;;;;;;5.28;4.53;;;;;;;;;;4989115;28;20051;-59
2022/05/20 03:04:12;;;;;;;7.78;5.28;;;;;;;;;;5005215;28;20033;-59
2022/05/20 03:06:52;;;;;;;6.90;4.63;;;;;;;;;;5006419;28;20026;-59
2022/05/20 03:09:46;;;;;;;10.45;4.82;;;;;;;;;;5011640;28;20036;-59
2022/05/20 03:15:41;;;;;;;5.70;4.45;;;;;;;;;;4986540;28;20041;-59
2022/05/20 03:18:40;;;;;;;8.07;5.95;;;;;;;;;;4999507;28;20474;-59
2022/05/20 03:21:42;;;;;;;7.88;5.40;;;;;;;;;;5067219;28;20044;-59
2022/05/20 03:24:41;;;;;;;8.55;5.38;;;;;;;;;;5066052;28;20083;-59
2022/05/20 03:33:26;;;;;;;5.97;4.57;;;;;;;;;;5054760;28;20086;-59
2022/05/20 03:36:21;;;;;;;6.68;5.18;;;;;;;;;;5036920;28;20590;-59
2022/05/20 03:39:05;;;;;;;5.03;4.57;;;;;;;;;;5054661;28;20479;-59
2022/05/20 03:42:10;;;;;;;;;;;;;;;;;;;;;
2022/05/20 03:48:18;;;;;;;7.95;5.28;;;;;;;;;;5020437;28;20029;-59
2022/05/20 03:57:02;;;;;;;6.20;5.53;;;;;;;;;;5053878;28;20029;-59
2022/05/20 03:59:58;;;;;;;7.63;5.05;;;;;;;;;;5036053;28;20475;-59
2022/05/20 04:02:31;;;;;;;7.20;4.55;;;;;;;;;;5053749;28;20052;-59
2022/05/20 04:08:23;;;;;;;10.13;5.38;;;;;;;;;;5054014;28;20471;-60
2022/05/20 04:10:53;;;;;;;6.65;5.15;;;;;;;;;;5031673;28;20388;-59
2022/05/20 04:13:34;;;;;;;5.82;5.30;;;;;;;;;;5034367;28;20132;-59
2022/05/20 04:16:31;;;;;;;7.10;5.43;;;;;;;;;;5022570;28;20029;-59
2022/05/20 04:22:20;;;;;;;6.05;5.32;;;;;;;;;;5033556;28;20033;-59
2022/05/20 04:25:05;;;;;;;6.88;5.30;;;;;;;;;;5038213;28;20025;-59
2022/05/20 04:27:31;;;;;;;6.53;5.38;;;;;;;;;;5037133;28;20064;-59
2022/05/20 04:30:35;;;;;;;6.55;5.00;;;;;;;;;;5037288;28;20014;-59
2022/05/20 04:33:40;;;;;;;11.38;6.30;;;;;;;;;;5037898;28;20025;-59
2022/05/20 04:39:27;;;;;;;5.93;5.03;;;;;;;;;;4951598;28;20022;-59
2022/05/20 04:48:38;;;;;;;4.78;4.30;;;;;;;;;;5036965;28;20037;-59
2022/05/20 04:51:05;;;;;;;6.18;5.30;;;;;;;;;;5047830;28;20468;-59
2022/05/20 04:56:45;;;;;;;8.50;6.05;;;;;;;;;;5037190;28;20028;-59
2022/05/20 04:59:16;;;;;;;6.43;5.00;;;;;;;;;;5036574;28;20038;-59
2022/05/20 05:02:08;;;;;;;8.27;4.88;;;;;;;;;;5037023;28;20097;-59
2022/05/20 05:04:53;;;;;;;6.63;4.65;;;;;;;;;;5020346;28;20526;-59
2022/05/20 05:07:35;;;;;;;4.30;3.70;;;;;;;;;;5036860;28;20031;-59
2022/05/20 05:10:12;;;;;;;7.35;3.78;;;;;;;;;;5019903;28;20034;-59
2022/05/20 05:13:10;;;;;;;5.45;4.00;;;;;;;;;;5048875;28;20491;-59
2022/05/20 05:15:54;;;;;;;5.22;3.80;;;;;;;;;;5036576;28;20403;-59
2022/05/20 05:18:29;;;;;;;6.68;3.85;;;;;;;;;;5018927;28;20040;-59
2022/05/20 05:21:18;;;;;;;6.30;4.00;;;;;;;;;;5036481;28;20105;-59
2022/05/20 05:24:22;;;;;;;7.03;3.55;;;;;;;;;;5036727;28;20380;-59
2022/05/20 05:27:20;;;;;;;5.88;4.03;;;;;;;;;;4995711;28;20033;-59
2022/05/20 05:36:26;;;;;;;;;;;;;;;;;;;;;
2022/05/20 05:39:01;;;;;;;5.53;3.33;;;;;;;;;;5034871;28;20152;-59
2022/05/20 05:41:34;;;;;;;4.30;3.58;;;;;;;;;;5037462;28;20101;-59
2022/05/20 05:44:09;;;;;;;4.30;3.90;;;;;;;;;;5049667;28;20040;-59
2022/05/20 05:46:38;;;;;;;4.55;3.88;;;;;;;;;;5015917;28;20121;-60
2022/05/20 05:49:13;;;;;;;5.30;3.78;;;;;;;;;;5033955;28;20124;-59
2022/05/20 05:52:07;;;;;;;6.97;4.95;;;;;;;;;;5036137;28;20029;-59
2022/05/20 05:54:54;;;;;;;5.28;4.30;;;;;;;;;;5036362;28;20021;-59
2022/05/20 05:57:52;;;;;;;4.32;3.90;;;;;;;;;;5036596;28;20112;-59
2022/05/20 06:00:28;;;;;;;6.10;3.97;;;;;;;;;;5049606;28;20095;-59
2022/05/20 06:03:16;;;;;;;;;;;;;;;;;;;;;
2022/05/20 06:06:05;;;;;;;5.13;4.25;;;;;;;;;;5030393;28;20144;-59
2022/05/20 06:08:52;;;;;;;4.85;4.15;;;;;;;;;;5050505;28;20033;-59
2022/05/20 06:11:42;;;;;;;6.70;4.82;;;;;;;;;;5028483;28;20080;-59
2022/05/20 06:14:42;;;;;;;6.82;5.25;;;;;;;;;;5035061;28;20475;-60
2022/05/20 06:17:23;;;;;;;7.70;4.35;;;;;;;;;;5033875;28;20107;-57
2022/05/20 06:20:07;;;;;;;6.07;4.03;;;;;;;;;;5034402;28;20025;-57
2022/05/20 06:22:48;;;;;;;7.60;4.35;;;;;;;;;;5049556;28;20503;-59
2022/05/20 06:28:15;;;;;;;5.90;3.83;;;;;;;;;;4973066;28;20086;-59
2022/05/20 06:31:17;;;;;;;4.00;3.10;;;;;;;;;;4973728;28;20158;-59
2022/05/20 06:33:58;;;;;;;6.55;3.90;;;;;;;;;;5024093;28;20551;-59
2022/05/20 06:42:40;;;;;;;10.88;4.88;;;;;;;;;;5034469;28;20072;-59
2022/05/20 06:51:23;;;;;;;5.70;3.83;;;;;;;;;;5034561;28;20390;-59
2022/05/20 06:53:54;;;;;;;8.68;3.75;;;;;;;;;;5019591;28;20049;-58
2022/05/20 06:59:38;;;;;;;5.15;4.10;;;;;;;;;;5034816;28;20479;-58
2022/05/20 07:02:51;;;;;;;;;;;;;;;;;;;;;
2022/05/20 07:05:34;;;;;;;7.35;3.67;;;;;;;;;;5034453;28;20018;-58
2022/05/20 07:08:21;;;;;;;4.10;3.38;;;;;;;;;;5017791;28;20038;-58
2022/05/20 07:11:08;;;;;;;7.22;3.67;;;;;;;;;;4992621;28;20030;-58
2022/05/20 07:13:43;;;;;;;6.05;3.72;;;;;;;;;;4973467;28;20038;-58
2022/05/20 07:16:35;;;;;;;7.53;4.25;;;;;;;;;;4973701;28;20488;-58
2022/05/20 07:22:22;;;;;;;4.78;3.60;;;;;;;;;;4960190;28;20035;-58
2022/05/20 07:24:59;;;;;;;4.20;3.03;;;;;;;;;;4973145;28;20082;-58
2022/05/20 07:27:46;;;;;;;3.97;3.05;;;;;;;;;;4971758;28;20122;-58
2022/05/20 07:30:26;;;;;;;7.63;3.97;;;;;;;;;;4973406;28;20436;-58
2022/05/20 07:33:14;;;;;;;6.50;3.83;;;;;;;;;;4955324;28;20401;-58
2022/05/20 07:36:16;;;;;;;4.88;3.88;;;;;;;;;;4954898;28;20593;-59
2022/05/20 07:39:07;;;;;;;6.57;3.53;;;;;;;;;;4973326;28;20396;-59
2022/05/20 07:42:06;;;;;;;5.00;3.20;;;;;;;;;;4956966;28;20197;-58
2022/05/20 07:50:43;;;;;;;5.15;4.05;;;;;;;;;;4973763;28;20440;-58
2022/05/20 07:53:48;;;;;;;4.72;3.38;;;;;;;;;;4966777;28;20066;-58
2022/05/20 07:59:39;;;;;;;4.28;2.88;;;;;;;;;;4965885;28;20034;-59
2022/05/20 08:02:09;;;;;;;5.00;3.10;;;;;;;;;;4977565;28;20039;-58
2022/05/20 08:05:03;;;;;;;6.28;3.63;;;;;;;;;;4961122;28;20073;-58
2022/05/20 08:07:44;;;;;;;4.60;3.50;;;;;;;;;;5001174;28;20460;-58
2022/05/20 08:10:38;;;;;;;3.83;2.63;;;;;;;;;;5001513;28;20084;-59
2022/05/20 08:13:21;;;;;;;4.35;3.63;;;;;;;;;;5035714;28;20579;-59
2022/05/20 08:16:02;;;;;;;3.83;3.05;;;;;;;;;;5021762;28;20687;-59
2022/05/20 08:18:57;;;;;;;5.78;3.63;;;;;;;;;;5040208;28;20383;-59
2022/05/20 08:21:38;;;;;;;6.82;3.15;;;;;;;;;;4995393;28;20045;-59
2022/05/20 08:24:22;;;;;;;5.13;3.40;;;;;;;;;;5037375;28;20045;-59
2022/05/20 08:30:02;;;;;;;6.60;3.72;;;;;;;;;;5026143;28;20026;-59
2022/05/20 08:32:43;;;;;;;6.18;2.92;;;;;;;;;;5016630;28;20052;-59
2022/05/20 08:35:21;;;;;;;3.90;3.47;;;;;;;;;;5037432;28;20025;-59
2022/05/20 08:41:28;;;;;;;3.83;3.13;;;;;;;;;;5037057;28;20063;-59
2022/05/20 08:44:24;;;;;;;5.88;3.17;;;;;;;;;;5016313;28;20103;-59
2022/05/20 08:47:29;;;;;;;;;;;;;;;;;;;;;
2022/05/20 08:50:23;;;;;;;3.75;3.13;;;;;;;;;;5017822;28;20037;-59
2022/05/20 08:53:10;;;;;;;6.00;3.03;;;;;;;;;;5035817;28;20033;-58
2022/05/20 08:55:45;;;;;;;10.63;3.60;;;;;;;;;;5019311;28;20029;-59
2022/05/20 08:58:29;;;;;;;4.28;3.33;;;;;;;;;;5018750;28;20030;-59
2022/05/20 09:01:36;;;;;;;4.30;3.30;;;;;;;;;;5014121;28;20084;-59
2022/05/20 09:07:15;;;;;;;4.85;3.97;;;;;;;;;;5012832;28;20136;-59
2022/05/20 09:09:56;;;;;;;3.60;2.60;;;;;;;;;;5014237;28;20061;-59
2022/05/20 09:13:07;;;;;;;5.53;3.47;;;;;;;;;;5014418;28;20081;-59
2022/05/20 09:15:56;;;;;;;5.57;3.05;;;;;;;;;;5013994;28;20049;-59
2022/05/20 09:21:58;;;;;;;4.15;3.00;;;;;;;;;;5014477;28;20038;-59
2022/05/20 09:24:50;;;;;;;3.83;2.67;;;;;;;;;;5014267;28;20026;-59
2022/05/20 09:30:15;;;;;;;6.57;3.47;;;;;;;;;;5014525;28;20481;-59
2022/05/20 09:33:00;;;;;;;4.35;3.40;;;;;;;;;;5031894;28;20494;-59
2022/05/20 09:35:43;;;;;;;4.65;3.38;;;;;;;;;;5036028;28;20033;-59
2022/05/20 09:41:33;;;;;;;5.78;3.05;;;;;;;;;;5020734;28;20041;-59
2022/05/20 09:44:05;;;;;;;4.72;3.00;;;;;;;;;;5013699;28;20030;-59
2022/05/20 09:46:58;;;;;;;4.45;3.25;;;;;;;;;;5013835;28;20069;-59
2022/05/20 09:49:55;;;;;;;;;;;;;;;;;;;;;
2022/05/20 09:56:13;;;;;;;4.75;3.67;;;;;;;;;;4955479;29;20149;-59
2022/05/20 09:59:03;;;;;;;6.28;3.17;;;;;;;;;;4939182;29;20381;-59
2022/05/20 10:04:51;;;;;;;4.18;3.08;;;;;;;;;;4966420;28;20033;-59
2022/05/20 10:07:31;;;;;;;5.82;3.10;;;;;;;;;;4996637;28;20034;-59
2022/05/20 10:13:06;;;;;;;4.63;2.85;;;;;;;;;;5012526;28;20747;-59
2022/05/20 10:15:57;;;;;;;5.57;3.88;;;;;;;;;;5011812;28;20098;-59
2022/05/20 10:18:42;;;;;;;4.45;2.75;;;;;;;;;;5034564;28;20025;-59
2022/05/20 10:21:35;;;;;;;3.85;3.20;;;;;;;;;;5016940;28;20506;-59
2022/05/20 10:24:19;;;;;;;3.92;2.85;;;;;;;;;;5015836;28;20121;-59
2022/05/20 10:27:08;;;;;;;4.00;2.53;;;;;;;;;;5033556;28;20533;-59
2022/05/20 10:32:51;;;;;;;8.25;2.85;;;;;;;;;;5004091;28;20056;-59
2022/05/20 10:35:29;;;;;;;5.05;2.95;;;;;;;;;;5034499;28;20022;-59
2022/05/20 10:38:23;;;;;;;4.28;2.30;;;;;;;;;;5034081;28;20375;-59
2022/05/20 10:41:14;;;;;;;3.25;1.95;;;;;;;;;;5016940;28;20467;-59
2022/05/20 10:50:34;;;;;;;;;;;;;;;;;;;;;
2022/05/20 10:59:37;;;;;;;4.13;2.63;;;;;;;;;;5009687;28;20478;-59
2022/05/20 11:02:22;;;;;;;7.22;2.88;;;;;;;;;;5034309;28;20060;-59
2022/05/20 11:08:30;;;;;;;4.32;2.97;;;;;;;;;;5034574;28;20068;-59
2022/05/20 11:11:22;;;;;;;5.43;2.75;;;;;;;;;;5034166;28;20021;-59
2022/05/20 11:14:05;;;;;;;;;;;;;;;;;;;;;
2022/05/20 11:17:03;;;;;;;;;;;;;;;;;;;;;
2022/05/20 11:19:40;;;;;;;3.20;2.15;;;;;;;;;;5031381;28;20033;-59
2022/05/20 11:22:41;;;;;;;;;;;;;;;;;;;;;
2022/05/20 11:25:46;;;;;;;8.18;2.83;;;;;;;;;;5030533;28;20038;-59
2022/05/20 11:28:38;;;;;;;4.60;2.17;;;;;;;;;;5011827;28;20467;-59
2022/05/20 11:31:44;;;;;;;4.97;3.63;;;;;;;;;;5015660;28;20033;-59
2022/05/20 11:34:28;;;;;;;7.25;2.67;;;;;;;;;;5012600;28;20034;-59
2022/05/20 11:40:29;;;;;;;4.10;2.47;;;;;;;;;;5027424;28;20037;-59
2022/05/20 11:43:36;;;;;;;4.35;2.78;;;;;;;;;;5033663;28;20037;-59
2022/05/20 11:49:28;;;;;;;5.13;2.65;;;;;;;;;;5031848;28;20371;-59
2022/05/20 11:52:00;;;;;;;5.30;2.72;;;;;;;;;;5033627;28;20029;-59
2022/05/20 11:54:37;;;;;;;4.95;2.60;;;;;;;;;;5033411;28;20033;-59
2022/05/20 11:57:18;;;;;;;5.68;2.60;;;;;;;;;;5033848;28;20022;-59
2022/05/20 12:00:08;;;;;;;5.93;2.30;;;;;;;;;;5033806;28;20098;-59
2022/05/20 12:03:13;;;;;;;4.28;2.70;;;;;;;;;;5048795;28;20029;-59
2022/05/20 12:06:20;;;;;;;3.28;2.45;;;;;;;;;;5011313;28;20468;-59
2022/05/20 12:09:02;;;;;;;5.75;1.80;;;;;;;;;;4933360;29;20035;-59
2022/05/20 12:11:35;;;;;;;3.40;2.20;;;;;;;;;;4933766;29;20118;-59
2022/05/20 12:14:23;;;;;;;5.35;2.50;;;;;;;;;;4932919;29;20119;-59
2022/05/20 12:17:10;;;;;;;4.07;2.88;;;;;;;;;;4933676;29;20043;-59
2022/05/20 12:29:19;;;;;;;5.03;2.40;;;;;;;;;;5002466;28;20117;-59
2022/05/20 12:32:18;;;;;;;6.90;2.87;;;;;;;;;;4967509;28;20038;-59
2022/05/20 12:35:12;;;;;;;3.15;2.00;;;;;;;;;;4995156;28;20033;-59
2022/05/20 12:37:46;;;;;;;4.80;2.28;;;;;;;;;;4995364;28;20423;-59
2022/05/20 12:40:31;;;;;;;4.13;2.28;;;;;;;;;;5012980;28;20520;-59
2022/05/20 12:43:04;;;;;;;4.20;2.72;;;;;;;;;;5016791;28;20061;-59
2022/05/20 12:46:02;;;;;;;3.75;2.25;;;;;;;;;;5017609;28;20030;-59
2022/05/20 12:48:40;;;;;;;6.05;3.17;;;;;;;;;;5017422;28;20076;-59
2022/05/20 12:51:10;;;;;;;4.97;2.75;;;;;;;;;;5008594;28;20032;-59
2022/05/20 12:53:46;;;;;;;4.85;2.80;;;;;;;;;;5016562;28;20106;-60
2022/05/20 12:56:29;;;;;;;3.22;2.40;;;;;;;;;;5017149;28;20528;-60
2022/05/20 12:59:14;;;;;;;6.78;2.65;;;;;;;;;;5016560;28;20022;-59
2022/05/20 13:01:56;;;;;;;5.82;2.53;;;;;;;;;;5016899;28;20049;-59
2022/05/20 13:04:32;;;;;;;3.80;2.05;;;;;;;;;;5016155;28;20116;-59
2022/05/20 13:07:06;;;;;;;6.07;2.30;;;;;;;;;;5016509;28;20022;-59
2022/05/20 13:09:59;;;;;;;5.25;2.08;;;;;;;;;;4998258;28;20065;-59
2022/05/20 13:12:32;;;;;;;4.07;2.63;;;;;;;;;;5015526;28;20030;-60
2022/05/20 13:15:10;;;;;;;4.20;2.20;;;;;;;;;;5036145;28;20072;-59
2022/05/20 13:18:10;;;;;;;;;;;;;;;;;;;;;
2022/05/20 13:20:44;;;;;;;3.75;2.55;;;;;;;;;;5033488;28;20040;-60
2022/05/20 13:26:09;;;;;;;3.47;2.05;;;;;;;;;;5035847;28;20041;-60
2022/05/20 13:28:42;;;;;;;3.78;2.33;;;;;;;;;;5035671;28;20029;-60
2022/05/20 13:31:38;;;;;;;3.75;2.50;;;;;;;;;;5036120;28;20018;-60
2022/05/20 13:34:18;;;;;;;10.35;3.10;;;;;;;;;;5035693;28;20017;-60
2022/05/20 13:36:49;;;;;;;5.95;2.72;;;;;;;;;;5035100;28;20026;-60
2022/05/20 13:39:17;;;;;;;3.65;2.35;;;;;;;;;;5035654;28;20017;-60
2022/05/20 13:42:12;;;;;;;11.00;2.35;;;;;;;;;;5034466;28;20137;-60
2022/05/20 13:44:54;;;;;;;5.63;2.50;;;;;;;;;;5016341;28;20038;-60
2022/05/20 13:50:34;;;;;;;4.25;2.35;;;;;;;;;;5035475;28;20113;-60
2022/05/20 13:53:10;;;;;;;4.93;2.55;;;;;;;;;;5035627;28;20029;-60
2022/05/20 13:55:47;;;;;;;4.03;2.08;;;;;;;;;;5035102;28;20075;-60
2022/05/20 13:58:30;;;;;;;6.15;2.17;;;;;;;;;;5034558;28;20365;-60
2022/05/20 14:01:10;;;;;;;3.47;2.38;;;;;;;;;;5035145;28;20088;-60
2022/05/20 14:03:40;;;;;;;;;;;;;;;;;;5035498;28;20040;-60
2022/05/20 14:06:29;;;;;;;5.43;2.42;;;;;;;;;;5035155;28;19905;-60
2022/05/20 14:08:57;;;;;;;4.88;2.60;;;;;;;;;;5017715;28;20037;-60
2022/05/20 14:11:53;;;;;;;3.13;2.20;;;;;;;;;;5035082;28;20021;-60
2022/05/20 14:14:25;;;;;;;4.70;2.30;;;;;;;;;;5028979;28;20509;-60
2022/05/20 14:16:58;;;;;;;4.28;2.35;;;;;;;;;;5017640;28;20029;-60
2022/05/20 14:19:33;;;;;;;5.13;2.33;;;;;;;;;;5035023;28;20029;-60
2022/05/20 14:22:11;;;;;;;3.35;2.17;;;;;;;;;;5049924;28;20033;-60
2022/05/20 14:25:24;;;;;;;4.07;2.65;;;;;;;;;;5035141;28;20056;-60
2022/05/20 14:27:52;;;;;;;4.95;2.33;;;;;;;;;;5023359;28;20037;-60
2022/05/20 14:30:25;;;;;;;4.82;2.25;;;;;;;;;;5017026;28;20036;-60
2022/05/20 14:32:56;;;;;;;5.65;2.90;;;;;;;;;;5035822;28;20053;-60
2022/05/20 14:35:51;;;;;;;3.30;2.13;;;;;;;;;;5034715;28;20029;-60
2022/05/20 14:38:51;;;;;;;5.10;2.70;;;;;;;;;;5034580;28;20463;-60
2022/05/20 14:41:34;;;;;;;7.20;3.33;;;;;;;;;;5000585;28;20430;-60
2022/05/20 14:44:15;;;;;;;4.30;2.63;;;;;;;;;;5016231;28;20541;-60
2022/05/20 14:50:12;;;;;;;;;;;;;;;;;;;;;
2022/05/20 14:53:12;;;;;;;6.53;2.67;;;;;;;;;;5032238;28;20044;-60
2022/05/20 14:55:55;;;;;;;4.78;2.88;;;;;;;;;;5034218;28;20128;-60
2022/05/20 14:58:27;;;;;;;3.83;3.00;;;;;;;;;;5034111;28;20037;-60
2022/05/20 15:01:03;;;;;;;4.75;3.40;;;;;;;;;;5016046;28;20072;-60
2022/05/20 15:03:41;;;;;;;6.60;3.17;;;;;;;;;;5034266;28;20033;-60
2022/05/20 15:06:17;;;;;;;7.13;3.83;;;;;;;;;;5032092;28;20038;-60
2022/05/20 15:08:47;;;;;;;6.88;3.05;;;;;;;;;;5015907;28;20058;-60
2022/05/20 15:11:18;;;;;;;9.35;3.10;;;;;;;;;;5031784;28;20068;-60
2022/05/20 15:13:54;;;;;;;3.88;2.58;;;;;;;;;;5033209;28;20052;-60
2022/05/20 15:16:38;;;;;;;4.35;2.90;;;;;;;;;;5034354;28;20029;-60
2022/05/20 15:19:18;;;;;;;15.13;3.25;;;;;;;;;;5034125;28;20021;-60
2022/05/20 15:21:54;;;;;;;4.32;3.30;;;;;;;;;;5033555;28;20495;-60
2022/05/20 15:24:51;;;;;;;6.18;3.38;;;;;;;;;;5032013;28;20037;-60
2022/05/20 15:27:33;;;;;;;6.78;3.53;;;;;;;;;;5015913;28;20541;-60
2022/05/20 15:29:59;;;;;;;4.15;2.83;;;;;;;;;;5033758;28;20083;-59
2022/05/20 15:35:31;;;;;;;5.95;2.97;;;;;;;;;;5033698;28;20506;-60
2022/05/20 15:38:11;;;;;;;8.23;3.42;;;;;;;;;;5033482;28;20037;-60
2022/05/20 15:41:01;;;;;;;6.18;3.55;;;;;;;;;;5016886;28;20068;-60
2022/05/20 15:44:03;;;;;;;7.55;2.83;;;;;;;;;;5031313;28;20083;-60
2022/05/20 15:47:09;;;;;;;;;;;;;;;;;;;;;
2022/05/20 15:49:36;;;;;;;6.90;3.78;;;;;;;;;;5032326;28;20034;-59
2022/05/20 15:52:28;;;;;;;4.38;3.13;;;;;;;;;;5033225;28;20395;-60
2022/05/20 15:55:04;;;;;;;4.85;2.65;;;;;;;;;;5028449;28;20507;-60
2022/05/20 15:57:40;;;;;;;7.20;2.78;;;;;;;;;;5033384;28;20057;-60
2022/05/20 16:00:23;;;;;;;6.50;3.10;;;;;;;;;;5033783;28;20096;-60
2022/05/20 16:02:59;;;;;;;5.20;2.30;;;;;;;;;;5015632;28;20538;-59
2022/05/20 16:05:39;;;;;;;5.22;3.33;;;;;;;;;;5014912;28;20108;-60
2022/05/20 16:08:22;;;;;;;8.77;4.80;;;;;;;;;;5034261;28;20021;-60
2022/05/20 16:11:03;;;;;;;12.80;3.72;;;;;;;;;;5047786;28;20537;-59
2022/05/20 16:13:50;;;;;;;7.95;3.40;;;;;;;;;;5032723;28;20056;-60
2022/05/20 16:16:22;;;;;;;8.05;4.03;;;;;;;;;;5033995;28;20392;-60
2022/05/20 16:18:59;;;;;;;9.20;4.05;;;;;;;;;;5018934;28;20022;-60
2022/05/20 16:21:34;;;;;;;8.75;3.53;;;;;;;;;;5037109;28;20025;-59
2022/05/20 16:24:18;;;;;;;5.00;3.47;;;;;;;;;;5019201;28;20033;-60
2022/05/20 16:27:04;;;;;;;10.02;3.10;;;;;;;;;;5036985;28;20022;-60
2022/05/20 16:29:59;;;;;;;8.27;3.35;;;;;;;;;;5036289;28;20034;-60
2022/05/20 16:35:39;;;;;;;5.05;3.08;;;;;;;;;;5037011;28;20116;-60
2022/05/20 16:38:17;;;;;;;5.22;3.33;;;;;;;;;;5037425;28;20025;-59
2022/05/20 16:41:12;;;;;;;3.35;2.67;;;;;;;;;;5036689;28;20025;-60
2022/05/20 16:43:45;;;;;;;5.38;2.92;;;;;;;;;;5036859;28;20480;-60
2022/05/20 16:49:45;;;;;;;4.57;2.70;;;;;;;;;;5026179;28;20455;-59
2022/05/20 16:52:12;;;;;;;7.53;3.15;;;;;;;;;;5034754;28;20115;-60
2022/05/20 16:54:45;;;;;;;6.75;3.45;;;;;;;;;;5037132;28;20025;-60
2022/05/20 17:06:15;;;;;;;3.67;2.38;;;;;;;;;;4948453;28;20032;-60
2022/05/20 17:12:20;;;;;;;6.28;3.03;;;;;;;;;;4982679;28;20041;-60
2022/05/20 17:14:58;;;;;;;5.13;3.47;;;;;;;;;;5018118;28;20041;-60
2022/05/20 17:17:34;;;;;;;5.57;3.47;;;;;;;;;;5036702;28;20053;-60
2022/05/20 17:20:01;;;;;;;5.68;3.13;;;;;;;;;;5036981;28;20108;-60
2022/05/20 17:25:17;;;;;;;6.65;3.70;;;;;;;;;;5036335;28;20054;-59
2022/05/20 17:27:51;;;;;;;4.87;3.00;;;;;;;;;;5035298;28;20022;-60
2022/05/20 17:30:23;;;;;;;7.85;4.35;;;;;;;;;;5035804;28;20026;-60
2022/05/20 17:32:57;;;;;;;8.07;3.33;;;;;;;;;;5013952;28;20045;-60
2022/05/20 17:38:26;;;;;;;5.45;2.95;;;;;;;;;;5014068;28;20034;-60
2022/05/20 17:41:03;;;;;;;4.93;3.13;;;;;;;;;;5018004;28;20017;-60
2022/05/20 17:43:34;;;;;;;5.18;3.20;;;;;;;;;;5031409;28;20041;-60
2022/05/20 17:46:22;;;;;;;3.80;3.15;;;;;;;;;;5017919;28;20471;-60
2022/05/20 17:48:59;;;;;;;7.78;3.13;;;;;;;;;;4958540;28;20060;-60
2022/05/20 17:51:30;;;;;;;4.13;2.58;;;;;;;;;;5035807;28;20029;-60
2022/05/20 17:54:14;;;;;;;5.07;3.38;;;;;;;;;;5018572;28;20415;-59
2022/05/20 17:57:04;;;;;;;7.15;3.53;;;;;;;;;;5017952;28;20380;-59
2022/05/20 17:59:50;;;;;;;3.78;3.03;;;;;;;;;;5035631;28;20029;-60
2022/05/20 18:02:19;;;;;;;5.20;3.28;;;;;;;;;;5034529;28;20040;-59
2022/05/20 18:04:48;;;;;;;6.18;3.35;;;;;;;;;;5017589;28;20041;-59
2022/05/20 18:07:21;;;;;;;6.95;3.08;;;;;;;;;;5034391;28;20124;-60
2022/05/20 18:10:32;;;;;;;8.70;3.53;;;;;;;;;;5035538;28;20344;-60
2022/05/20 18:13:38;;;;;;;3.78;2.97;;;;;;;;;;4938288;29;20051;-60
2022/05/20 18:16:26;;;;;;;;;;;;;;;;;;;;;
2022/05/20 18:19:21;;;;;;;8.75;3.72;;;;;;;;;;4953119;29;20037;-60
2022/05/20 18:24:58;;;;;;;4.10;2.85;;;;;;;;;;4954707;29;20106;-60
2022/05/20 18:27:45;;;;;;;7.45;3.70;;;;;;;;;;4983251;28;20032;-60
2022/05/20 18:30:11;;;;;;;5.45;3.88;;;;;;;;;;5010674;28;20038;-60
2022/05/20 18:42:02;;;;;;;6.65;4.70;;;;;;;;;;5015101;28;20116;-60
2022/05/20 18:44:30;;;;;;;8.40;3.42;;;;;;;;;;5005816;28;20030;-60
2022/05/20 18:47:44;;;;;;;6.75;3.40;;;;;;;;;;5014508;28;20032;-60
2022/05/20 18:50:39;;;;;;;5.07;2.97;;;;;;;;;;4973992;28;20035;-60
2022/05/20 18:53:37;;;;;;;;;;;;;;;;;;;;;
2022/05/20 18:56:16;;;;;;;7.05;3.50;;;;;;;;;;5004082;28;20038;-60
2022/05/20 19:02:53;;;;;;;3.78;2.35;;;;;;;;;;4948807;28;20042;-60
2022/05/20 19:11:03;;;;;;;;;;;;;;;;;;;;;
2022/05/20 19:13:38;;;;;;;4.68;2.33;;;;;;;;;;5009765;28;20079;-60
2022/05/20 19:19:13;;;;;;;;;;;;;;;;;;;;;
2022/05/20 19:24:47;;;;;;;5.47;2.63;;;;;;;;;;5014201;28;20088;-60
2022/05/20 19:27:26;;;;;;;6.45;2.53;;;;;;;;;;5033668;28;20083;-60
2022/05/20 19:32:42;;;;;;;5.07;2.70;;;;;;;;;;4996402;28;20037;-59
2022/05/20 19:35:20;;;;;;;3.92;2.92;;;;;;;;;;5048152;28;20034;-59
2022/05/20 19:38:11;;;;;;;5.20;2.95;;;;;;;;;;5034425;28;20048;-59
2022/05/20 19:40:46;;;;;;;8.30;3.17;;;;;;;;;;5023186;28;20490;-59
2022/05/20 19:43:21;;;;;;;8.45;2.88;;;;;;;;;;5033757;28;20038;-59
2022/05/20 19:46:01;;;;;;;;;;;;;;;;;;;;;
2022/05/20 19:48:55;;;;;;;;;;;;;;;;;;;;;
2022/05/20 19:51:36;;;;;;;3.67;2.28;;;;;;;;;;5036693;28;20022;-59
2022/05/20 19:54:24;;;;;;;12.40;3.50;;;;;;;;;;5037536;28;20092;-59
2022/05/20 20:00:39;;;;;;;6.32;2.70;;;;;;;;;;5019293;28;20060;-59
2022/05/20 20:02:36;;;;;;;7.68;2.83;;;;;;;;;;5037551;28;20127;-59
2022/05/20 20:05:08;;;;;;;5.07;2.10;;;;;;;;;;5031014;28;20033;-59
2022/05/20 20:08:03;;;;;;;7.32;2.65;;;;;;;;;;5037131;28;20029;-59
2022/05/20 20:14:02;;;;;;;5.25;2.80;;;;;;;;;;5036637;28;20033;-59
2022/05/20 20:16:50;;;;;;;;;;;;;;;;;;;;;
2022/05/20 20:28:54;;;;;;;6.55;3.17;;;;;;;;;;4973144;28;20238;-60
2022/05/20 20:31:31;;;;;;;3.40;2.65;;;;;;;;;;4975135;28;20126;-58
2022/05/20 20:34:11;;;;;;;5.10;3.13;;;;;;;;;;5004063;28;20358;-58
2022/05/20 20:36:46;;;;;;;5.57;2.83;;;;;;;;;;5037785;28;20030;-58
2022/05/20 20:39:22;;;;;;;8.07;3.00;;;;;;;;;;5052970;28;20410;-59
2022/05/20 20:42:21;;;;;;;7.18;4.55;;;;;;;;;;5050498;28;20091;-60
2022/05/20 20:44:47;;;;;;;5.45;3.83;;;;;;;;;;5019558;28;20030;-60
2022/05/20 20:47:25;;;;;;;5.88;3.97;;;;;;;;;;5036219;28;20470;-60
2022/05/20 20:49:58;;;;;;;6.65;4.82;;;;;;;;;;5003374;28;20032;-60
2022/05/20 20:52:25;;;;;;;8.10;4.45;;;;;;;;;;5035978;28;20037;-60
2022/05/20 20:55:20;;;;;;;5.43;3.88;;;;;;;;;;5037110;28;20025;-60
2022/05/20 20:58:03;;;;;;;5.60;4.32;;;;;;;;;;4999199;28;20029;-60
2022/05/20 21:00:39;;;;;;;5.90;4.13;;;;;;;;;;5047355;28;20510;-60
2022/05/20 21:03:06;;;;;;;8.02;4.53;;;;;;;;;;5037920;28;20107;-60
2022/05/20 21:05:53;;;;;;;5.65;4.80;;;;;;;;;;5039381;28;20489;-60
2022/05/20 21:08:23;;;;;;;6.43;4.88;;;;;;;;;;5040404;28;20467;-60
2022/05/20 21:11:11;;;;;;;;;;;;;;;;;;;;;
2022/05/20 21:19:57;;;;;;;6.82;3.95;;;;;;;;;;4940689;29;20035;-60